Terminal Aerodrome Forecast
Issued by NWS Northern Indiana

Home | Current Version | Previous Version | Text Only | Print | Product List | Glossary Off
Versions: 1 2 3 4 5 6 7 8 9 10 11 12 13 14 15

000
FTUS43 KIWX 031700 RRA
TAFFWA
TAF
KFWA 031739Z 0318/0418 16014KT 2SM -FZDZ BR OVC008 WS020/23050KT
     FM031900 21016G24KT 2SM -RA BR OVC005 WS020/23050KT
     FM040300 28012G18KT P6SM -SHSN BKN015
     FM041400 30010KT P6SM BKN020=

USA.gov is the U.S. government's official web portal to all federal, state and local government web resources and services.